• Join FlightAware (Why Join?)
  • Login
  • US Flag 
10:07AM EDT


 

Airport Tracker/Info


-or-


 

Live Flight TrackerFlight Track Log ✈ C-FMFU ✈ 13-May-2013 ✈ CYPG - CYQR

Flight Track Log - Related Links

Times and Time Zones

All times are in EDT time to prevent confusion due to time zone crossing. See the C-FMFU flight status page for this flight to view local times or setup timezone preferences in your user account.

Time Position Orientation Groundspeed Altitude Reporting Facility
EDT Latitude Longitude Course Direction KTS MPH feet Rate Location/Type
01:33PM 49.9045 -98.2901 280° West  Level Estimated
01:34PM 49.9191 -98.4223 280° West  Level Estimated
01:35PM 49.9336 -98.5546 280° West  Level Estimated
01:36PM 49.9479 -98.6869 280° West  Level Estimated
01:37PM 49.9621 -98.8193 279° West  Level Estimated
01:38PM 49.9860 -99.0221 280° West  Level FlightAware Approximate
01:39PM 50.0096 -99.2251 280° West  Level FlightAware Approximate
01:40PM 50.0329 -99.4283 280° West  Level FlightAware Approximate
01:41PM 50.0558 -99.6317 280° West  Level FlightAware Approximate
01:42PM 50.0783 -99.8353 280° West  Level FlightAware Approximate
01:43PM 50.1005 -100.0390 280° West  Level FlightAware Approximate
01:44PM 50.1223 -100.2430 280° West  Level FlightAware Approximate
01:45PM 50.1438 -100.4471 279° West  Level FlightAware Approximate
01:46PM 50.1649 -100.6514 279° West  Level FlightAware Approximate
01:47PM 50.1856 -100.8559 279° West  Level FlightAware Approximate
01:48PM 50.2062 -101.0606 279° West  Level FlightAware Approximate
01:49PM 50.2271 -101.2653 279° West  Level FlightAware Approximate
01:50PM 50.2475 -101.4701 279° West  Level FlightAware Approximate
01:51PM 50.2676 -101.6751 279° West  Level FlightAware Approximate
01:52PM 50.2874 -101.8803 279° West  Level FlightAware Approximate
01:53PM 50.3068 -102.0856 278° West  Level FlightAware Approximate
01:54PM 50.3258 -102.2912 278° West  Level FlightAware Approximate
01:55PM 50.3444 -102.4968 278° West  Level FlightAware Approximate
01:56PM 50.3627 -102.7027 278° West  Level FlightAware Approximate
01:57PM 50.3807 -102.9087 278° West  Level FlightAware Approximate
01:58PM 50.3982 -103.1148 278° West  Level FlightAware Approximate
01:59PM 50.4154 -103.3211 278° West  Level FlightAware Approximate
02:00PM 50.4323 -103.5276 277° West  Level FlightAware Approximate
02:01PM 50.4487 -103.7342 277° West  Level FlightAware Approximate
02:02PM 50.4661 -103.9407 278° West  Level FlightAware Approximate
02:03PM 50.4832 -104.1473 277° West  Level FlightAware Approximate
02:04PM 50.4999 -104.3541 277° West  Level FlightAware Approximate
02:05PM 50.5162 -104.5610 277° West  Level FlightAware Approximate
02:06PM 50.4319 -104.6658 277° West  Level Estimated
02:07PM 50.4319 -104.6658 287° West  Level Estimated
02:08PM 50.4319 -104.6658 287° West  Level Estimated
02:09PM 50.4319 -104.6658 287° West  Level Estimated
02:10PM 50.4319 -104.6658 263° West  Level Estimated
02:11PM 50.4319 -104.6658 102° East  Level Estimated
02:12PM 50.4319 -104.6658 100° East  Level Estimated
02:13PM 50.4319 -104.6658 147° Southeast  Level Estimated
02:14PM 50.4319 -104.6658 147° Southeast  Level Estimated
02:15PM 50.4319 -104.6658 147° Southeast  Level Estimated
02:16PM 50.4319 -104.6658 147° Southeast  Level Estimated
02:17PM 50.4319 -104.6658 100° East  Level Estimated
02:18PM 50.4319 -104.6658 100° East  Level Estimated
02:19PM 50.4319 -104.6658 100° East  Level Estimated
02:20PM 50.4319 -104.6658 100° East  Level Estimated
02:21PM 50.4319 -104.6658 100° East  Level Estimated
02:22PM 50.4319 -104.6658 100° East  Level Estimated
02:23PM 50.4319 -104.6658 100° East  Level Estimated
02:24PM 50.4319 -104.6658 100° East  Level Estimated
02:25PM 50.4319 -104.6658 100° East  Level Estimated
02:26PM 50.4319 -104.6658 100° East  Level Estimated
02:27PM 50.4319 -104.6658 100° East  Level Estimated
02:28PM 50.4319 -104.6658 100° East  Level Estimated
02:29PM 50.4319 -104.6658 100° East  Level Estimated
02:30PM 50.4319 -104.6658 100° East  Level Estimated
02:31PM 50.4319 -104.6658 100° East  Level Estimated
02:32PM 50.4319 -104.6658 100° East  Level Estimated
02:33PM 50.4319 -104.6658 100° East  Level Estimated
02:34PM 50.4319 -104.6658 100° East  Level Estimated
02:35PM 50.4319 -104.6658 100° East  Level Estimated
02:36PM 50.4319 -104.6658 100° East  Level Estimated
02:37PM 50.4319 -104.6658 100° East  Level Estimated
02:38PM 50.4319 -104.6658 100° East  Level Estimated
02:39PM 50.4319 -104.6658 100° East  Level Estimated
02:40PM 50.4319 -104.6658 100° East  Level Estimated
02:41PM 50.4319 -104.6658 100° East  Level Estimated
02:42PM 50.4319 -104.6658 100° East  Level Estimated
02:43PM 50.4319 -104.6658 100° East  Level Estimated
02:44PM 50.4319 -104.6658 100° East  Level Estimated
02:45PM 50.4319 -104.6658 100° East  Level Estimated
02:46PM 50.4319 -104.6658 100° East  Level Estimated
02:47PM 50.4319 -104.6658 100° East  Level Estimated
02:48PM 50.4319 -104.6658 100° East  Level Estimated
02:49PM 50.4319 -104.6658 100° East  Level Estimated
02:50PM 50.4319 -104.6658 100° East  Level Estimated
02:51PM 50.4319 -104.6658 100° East  Level Estimated
02:52PM 50.4319 -104.6658 100° East  Level Estimated
02:53PM 50.4319 -104.6658 100° East  Level Estimated
02:54PM 50.4319 -104.6658 100° East  Level Estimated
02:55PM 50.4319 -104.6658 100° East  Level Estimated